LTBU/TEQ METAR and TAF weather

Enter ICAO airport designator
Station Type Date Time Source
LTBU METAR 2019/12/08 11:20 UTC NOAA

LTBU 081120Z 28006KT 250V310 CAVOK 12/07 Q1017


Station Type Date Time Source
LTBU Decoded METAR 2019/12/08 11:20 UTC NOAA

Corlu, Turkey (LTBU) 41-08N 027-55E
Dec 08, 2019 - 06:20 AM EST / 2019.12.08 1120 UTC
Wind: from the W (280 degrees) at 7 MPH (6 KT) (direction variable):0
Visibility: greater than 7 mile(s):0
Temperature: 53 F (12 C)
Dew Point: 44 F (7 C)
Relative Humidity: 71%
Pressure (altimeter): 30.03 in. Hg (1017 hPa)
ob: LTBU 081120Z 28006KT 250V310 CAVOK 12/07 Q1017
cycle: 11

Station Type Date Time Source
LTBU TAF 2019/12/08 12:03 UTC NOAA

TAF LTBU 081040Z 0812/0912 35008KT CAVOK
BECMG 0906/0909 15010KT FEW035

Example: see airport list